»·PEaware :: N172SP L52-L17

N172SP :: L52-L17

FLIGHT INFORMATION

Flight Status: Arrived
Operator: Privately registered:
United States
More flights under this callsign
Pilot: Alexander M. (19327)
Aircraft: CESSNA 172 SKYHAWK
(C172)
More flights by this aircraft type
Origin: L52 Oceano Co
United States
Destination: L17 Taft-Kern Co
United States
More flights between these airports :: More routes between these airports
Route: DCT
File this flight plan on PilotEdge
Remarks: First flight on stream! twitch.tv / allaboutflight
Altitude:
(Current/Filed)
5,500ft
Speed:
(Current/Filed)
105kts
Departed: 08-Oct-18 03:05 PM
Arrived: 08-Oct-18 03:42 PM
Distance/Time
Traveled:
58nm/0:36
Distance/Time
To Go:
Arrived

Flight Plot

Page will automatically refresh every two minutes.

Flight plan parsing failed; only flown route is shown


Map Options




Map Legend


Flown Route
Filed Route
Departure Airport
Arrival Airport
Navaid (VOR, NDB)
Fix

Horizontal Profiles

Position Reports

Time Latitude Longitude Heading Altitude Ground
Speed
08-Oct-18 14:56 35.103452 -120.624821 213 18ft 0kts
08-Oct-18 14:57 35.103452 -120.624821 213 18ft 0kts
08-Oct-18 14:58 35.103452 -120.624821 213 18ft 0kts
08-Oct-18 14:59 35.103452 -120.624821 213 18ft 0kts
08-Oct-18 15:00 35.103525 -120.625255 253 18ft 0kts
08-Oct-18 15:01 35.103525 -120.625257 253 18ft 0kts
08-Oct-18 15:02 35.103525 -120.625257 253 18ft 0kts
08-Oct-18 15:03 35.103525 -120.625257 253 18ft 0kts
08-Oct-18 15:04 35.103525 -120.625257 253 18ft 0kts
08-Oct-18 15:05 35.103525 -120.625257 253 18ft 0kts
08-Oct-18 15:06 35.103110 -120.625340 127 18ft 0kts
08-Oct-18 15:07 35.101127 -120.621217 122 87ft 65kts
08-Oct-18 15:08 35.091524 -120.599862 119 1067ft 77kts
08-Oct-18 15:09 35.088430 -120.573801 84 2113ft 85kts
08-Oct-18 15:10 35.091916 -120.544944 85 3124ft 87kts
08-Oct-18 15:11 35.094792 -120.514885 85 4073ft 91kts
08-Oct-18 15:12 35.097476 -120.484224 77 4993ft 91kts
08-Oct-18 15:13 35.101557 -120.450066 79 5570ft 119kts
08-Oct-18 15:14 35.106362 -120.408900 84 5519ft 126kts
08-Oct-18 15:15 35.108306 -120.366168 85 5471ft 124kts
08-Oct-18 15:16 35.110533 -120.331716 85 5454ft 123kts
08-Oct-18 15:17 35.112974 -120.292207 83 5489ft 121kts
08-Oct-18 15:18 35.117084 -120.251593 83 5512ft 121kts
08-Oct-18 15:19 35.119386 -120.210360 83 5540ft 121kts
08-Oct-18 15:20 35.121448 -120.169213 85 5557ft 121kts
08-Oct-18 15:21 35.123213 -120.128040 82 5580ft 121kts
08-Oct-18 15:22 35.124828 -120.086067 87 5512ft 125kts
08-Oct-18 15:23 35.125975 -120.043404 88 5463ft 125kts
08-Oct-18 15:24 35.126240 -120.000837 88 5412ft 125kts
08-Oct-18 15:25 35.127921 -119.958704 86 5412ft 123kts
08-Oct-18 15:26 35.129648 -119.918080 83 5507ft 120kts
08-Oct-18 15:27 35.132240 -119.877185 85 5525ft 122kts
08-Oct-18 15:28 35.134552 -119.836210 83 5527ft 122kts
08-Oct-18 15:29 35.136117 -119.794477 89 5528ft 122kts
08-Oct-18 15:30 35.134981 -119.753000 91 5534ft 122kts
08-Oct-18 15:31 35.135976 -119.712003 82 5478ft 121kts
08-Oct-18 15:32 35.141934 -119.672312 69 5432ft 118kts
08-Oct-18 15:33 35.144122 -119.634952 82 4760ft 108kts
08-Oct-18 15:34 35.146577 -119.599751 80 3967ft 96kts
08-Oct-18 15:35 35.146244 -119.567300 96 3057ft 95kts
08-Oct-18 15:36 35.144089 -119.537364 92 2320ft 81kts
08-Oct-18 15:37 35.147429 -119.511730 63 2140ft 78kts
08-Oct-18 15:38 35.154551 -119.486438 70 2136ft 78kts
08-Oct-18 15:39 35.163923 -119.461886 64 2183ft 80kts
08-Oct-18 15:40 35.154329 -119.442539 162 2067ft 79kts
08-Oct-18 15:41 35.136543 -119.430991 88 1885ft 74kts
08-Oct-18 15:42 35.143996 -119.415654 330 1315ft 59kts
08-Oct-18 15:43 35.142399 -119.432921 258 882ft 54kts
08-Oct-18 15:44 35.140980 -119.442468 258 879ft 12kts
08-Oct-18 15:45 35.140314 -119.443989 86 879ft 0kts
08-Oct-18 15:46 35.140314 -119.443989 86 879ft 0kts
08-Oct-18 15:47 35.140314 -119.443989 86 879ft 0kts
08-Oct-18 15:48 35.140314 -119.443989 86 879ft 0kts
08-Oct-18 15:49 35.140314 -119.443989 86 879ft 0kts
08-Oct-18 15:50 35.140314 -119.443989 86 879ft 0kts
08-Oct-18 15:51 35.140318 -119.443966 59 879ft 0kts
08-Oct-18 15:52 35.140772 -119.443715 79 879ft 6kts
08-Oct-18 15:53 35.140817 -119.443390 80 879ft 8kts
08-Oct-18 15:54 35.141503 -119.438927 79 879ft 20kts
08-Oct-18 15:55 35.142409 -119.432564 82 879ft 3kts
08-Oct-18 15:56 35.142456 -119.432593 261 879ft 0kts
08-Oct-18 15:57 35.142456 -119.432593 261 879ft 0kts
08-Oct-18 15:58 35.140206 -119.446494 256 1134ft 78kts

Navigation Log

Ident Type
Flight plan parsing failed, navigation log unavailable